Terminal Aerodrome Forecast
Issued by NWS Cheyenne, WY

Home | Current Version | Previous Version | Text Only | Print | Product List | Glossary On
Versions: 1 2 3 4 5 6 7 8 9 10 11 12 13 14 15 16 17 18
000
FTUS45 KCYS 241130
TAFCYS
TAF
KCYS 241130Z 2412/2512 VRB06KT P6SM SCT070 BKN100
     FM241600 16007KT P6SM SCT200
     FM242000 14009KT P6SM VCTS BKN100CB
     FM250100 14009KT P6SM VCSH SCT080 BKN100
     FM250400 17007KT P6SM SCT250=

USA.gov is the U.S. government's official web portal to all federal, state and local government web resources and services.